createdAt,value
2022-08-26T00:03:34.249Z,4.53
2022-08-26T00:08:31.618Z,4.43
2022-08-26T00:13:34.766Z,4.32
2022-08-26T00:18:31.267Z,3.95
2022-08-26T00:23:32.812Z,4.13
2022-08-26T00:28:27.416Z,5.00
2022-08-26T00:33:49.160Z,3.88
2022-08-26T00:38:48.342Z,3.97
2022-08-26T00:43:47.339Z,4.50
2022-08-26T00:48:55.607Z,4.47
2022-08-26T00:54:03.712Z,4.15
2022-08-26T00:59:06.230Z,4.20
2022-08-26T01:04:02.432Z,5.25
2022-08-26T01:09:00.852Z,4.05
2022-08-26T01:14:00.728Z,4.97
2022-08-26T01:19:01.814Z,4.95
2022-08-26T01:24:00.759Z,4.10
2022-08-26T01:28:58.734Z,4.65
2022-08-26T01:33:57.589Z,4.20
2022-08-26T01:38:54.176Z,3.92
2022-08-26T01:43:53.041Z,3.55
2022-08-26T01:48:54.362Z,4.15
2022-08-26T01:53:48.550Z,3.90
2022-08-26T01:58:54.080Z,3.85
2022-08-26T02:04:06.009Z,4.30
2022-08-26T02:09:03.656Z,3.90
2022-08-26T02:14:04.143Z,4.07
2022-08-26T02:19:00.914Z,3.92
2022-08-26T02:24:27.360Z,3.85
2022-08-26T02:29:33.078Z,3.97
2022-08-26T02:34:33.110Z,4.72
2022-08-26T02:39:40.574Z,4.60
2022-08-26T02:44:48.446Z,4.03
2022-08-26T02:49:47.865Z,4.22
2022-08-26T02:54:43.756Z,4.10
2022-08-26T02:59:40.854Z,4.38
2022-08-26T03:04:41.110Z,4.80
2022-08-26T03:09:53.143Z,4.35
2022-08-26T03:14:48.532Z,4.10
2022-08-26T03:19:42.386Z,4.13
2022-08-26T03:24:39.029Z,4.05
2022-08-26T03:29:51.547Z,4.05
2022-08-26T03:34:49.121Z,4.97
2022-08-26T03:39:45.028Z,4.10
2022-08-26T03:44:42.003Z,4.35
2022-08-26T03:49:41.062Z,4.32
2022-08-26T03:54:45.777Z,4.63
2022-08-26T03:59:45.657Z,4.72
2022-08-26T04:04:48.438Z,4.50
2022-08-26T04:09:46.238Z,4.82
2022-08-26T04:14:45.028Z,5.28
2022-08-26T04:19:42.568Z,5.20
2022-08-26T04:24:40.186Z,4.22
2022-08-26T04:29:41.602Z,4.70
2022-08-26T04:34:42.094Z,5.90
2022-08-26T04:39:36.677Z,5.18
2022-08-26T04:44:31.770Z,4.85
2022-08-26T04:49:35.093Z,5.40
2022-08-26T04:54:37.089Z,5.40
2022-08-26T04:59:30.910Z,4.60
2022-08-26T05:04:24.871Z,5.22
2022-08-26T05:09:20.588Z,5.90
2022-08-26T05:14:15.205Z,6.15
2022-08-26T05:19:12.413Z,5.38
2022-08-26T05:24:09.425Z,5.45
2022-08-26T05:29:14.020Z,5.25
2022-08-26T05:34:09.691Z,4.88
2022-08-26T05:39:07.688Z,4.38
2022-08-26T05:44:19.124Z,5.03
2022-08-26T05:49:19.963Z,4.75
2022-08-26T05:55:02.774Z,5.13
2022-08-26T06:00:26.571Z,5.38
2022-08-26T06:05:26.722Z,5.57
2022-08-26T06:10:32.482Z,4.63
2022-08-26T06:15:33.633Z,4.57
2022-08-26T06:20:38.237Z,3.97
2022-08-26T06:26:11.332Z,4.28
2022-08-26T06:31:40.135Z,4.78
2022-08-26T06:36:48.723Z,5.00
2022-08-26T06:42:10.938Z,7.68
2022-08-26T06:48:14.901Z,4.18
2022-08-26T06:53:57.511Z,4.00
2022-08-26T06:59:03.692Z,4.63
2022-08-26T07:09:44.659Z,4.20
2022-08-26T07:27:04.871Z,4.90
2022-08-26T07:32:13.385Z,4.43
2022-08-26T07:37:42.973Z,5.07
2022-08-26T07:42:49.609Z,5.32
2022-08-26T07:47:48.828Z,5.63
2022-08-26T07:52:48.048Z,5.38
2022-08-26T08:02:49.732Z,4.85
2022-08-26T08:08:27.091Z,5.30
2022-08-26T08:13:24.763Z,5.00
2022-08-26T08:18:31.917Z,5.63
2022-08-26T08:23:34.956Z,4.63
2022-08-26T08:28:36.954Z,5.55
2022-08-26T08:33:35.258Z,4.82
2022-08-26T08:38:56.659Z,4.03
2022-08-26T08:44:07.146Z,5.07
2022-08-26T08:49:04.502Z,4.70
2022-08-26T08:54:10.064Z,4.15
2022-08-26T08:59:52.207Z,4.32
2022-08-26T09:05:22.439Z,5.22
2022-08-26T09:10:56.451Z,3.85
2022-08-26T09:16:20.333Z,4.47
2022-08-26T09:22:01.606Z,5.10
2022-08-26T09:27:09.035Z,4.40
2022-08-26T09:32:33.238Z,3.65
2022-08-26T09:38:17.403Z,4.07
2022-08-26T09:43:22.595Z,4.28
2022-08-26T09:48:37.167Z,3.47
2022-08-26T09:53:38.820Z,3.78
2022-08-26T10:03:51.280Z,3.55
2022-08-26T10:09:00.232Z,3.60
2022-08-26T10:14:07.344Z,3.70
2022-08-26T10:19:09.635Z,4.30
2022-08-26T10:24:11.762Z,3.80
2022-08-26T10:29:14.825Z,3.42
2022-08-26T10:34:15.867Z,3.85
2022-08-26T10:39:28.417Z,3.72
2022-08-26T10:44:28.590Z,4.03
2022-08-26T10:49:23.703Z,3.58
2022-08-26T10:54:33.320Z,4.13
2022-08-26T10:59:46.688Z,3.85
2022-08-26T11:05:07.325Z,3.95
2022-08-26T11:10:12.559Z,4.07
2022-08-26T11:15:09.792Z,3.90
2022-08-26T11:20:17.974Z,3.60
2022-08-26T11:25:14.949Z,4.07
2022-08-26T11:30:18.324Z,3.90
2022-08-26T11:35:52.285Z,4.00
2022-08-26T11:40:59.946Z,4.00
2022-08-26T11:46:11.721Z,3.65
2022-08-26T11:51:35.902Z,4.38
2022-08-26T11:56:40.942Z,3.78
2022-08-26T12:01:42.459Z,3.60
2022-08-26T12:06:56.081Z,3.85
2022-08-26T12:12:22.557Z,4.10
2022-08-26T12:17:33.325Z,4.00
2022-08-26T12:22:36.274Z,4.47
2022-08-26T12:28:00.120Z,4.47
2022-08-26T12:33:22.445Z,3.55
2022-08-26T12:38:27.823Z,3.58
2022-08-26T12:43:59.723Z,4.38
2022-08-26T12:49:20.834Z,3.45
2022-08-26T12:59:50.610Z,5.90
2022-08-26T13:04:56.520Z,4.82
2022-08-26T13:10:01.155Z,5.57
2022-08-26T13:14:54.888Z,5.18
2022-08-26T13:19:51.665Z,4.67
2022-08-26T13:24:48.453Z,4.60
2022-08-26T13:29:45.044Z,4.45
2022-08-26T13:35:05.728Z,4.87
2022-08-26T13:40:34.390Z,4.38
2022-08-26T13:45:40.828Z,4.78
2022-08-26T13:55:46.267Z,4.47
2022-08-26T14:00:49.490Z,4.68
2022-08-26T14:05:54.627Z,3.88
2022-08-26T14:10:55.402Z,5.47
2022-08-26T14:16:09.222Z,4.28
2022-08-26T14:21:14.865Z,4.60
2022-08-26T14:26:11.705Z,4.20
2022-08-26T14:31:42.703Z,3.90
2022-08-26T14:36:52.849Z,4.70
2022-08-26T14:42:00.232Z,4.30
2022-08-26T14:52:56.380Z,4.90
2022-08-26T14:58:04.476Z,4.40
2022-08-26T15:03:07.719Z,4.55
2022-08-26T15:08:27.672Z,4.00
2022-08-26T15:18:43.723Z,4.47
2022-08-26T15:23:47.872Z,4.18
2022-08-26T15:29:03.090Z,4.25
2022-08-26T15:34:51.423Z,5.20
2022-08-26T15:40:26.161Z,4.43
2022-08-26T15:46:03.916Z,4.43
2022-08-26T15:51:46.068Z,6.65
2022-08-26T16:03:04.600Z,4.05
2022-08-26T16:14:46.157Z,5.70
2022-08-26T16:20:22.369Z,6.47
2022-08-26T16:25:25.793Z,5.05
2022-08-26T16:30:26.178Z,6.57
2022-08-26T16:35:39.028Z,6.03
2022-08-26T16:41:18.268Z,6.03
2022-08-26T16:52:30.282Z,6.10
2022-08-26T16:57:53.692Z,6.22
2022-08-26T17:09:10.831Z,5.47
2022-08-26T17:14:12.256Z,5.88
2022-08-26T17:19:14.901Z,5.70
2022-08-26T17:24:10.545Z,6.50
2022-08-26T17:29:13.799Z,6.55
2022-08-26T17:34:23.482Z,6.45
2022-08-26T17:39:17.709Z,6.18
2022-08-26T17:44:23.014Z,6.28
2022-08-26T17:49:20.193Z,6.93
2022-08-26T17:54:32.966Z,6.60
2022-08-26T17:59:39.030Z,6.63
2022-08-26T18:04:51.045Z,6.32
2022-08-26T18:09:49.835Z,6.55
2022-08-26T18:14:49.952Z,6.38
2022-08-26T18:20:27.196Z,6.22
2022-08-26T18:25:35.012Z,6.55
2022-08-26T18:30:45.264Z,7.03
2022-08-26T18:36:37.126Z,7.20
2022-08-26T18:41:29.888Z,8.10
2022-08-26T18:46:35.871Z,8.40
2022-08-26T18:51:37.801Z,8.43
2022-08-26T18:56:45.768Z,8.02
2022-08-26T19:01:56.140Z,9.32
2022-08-26T19:07:15.824Z,9.63
2022-08-26T19:12:10.994Z,8.20
2022-08-26T19:17:24.628Z,8.13
2022-08-26T19:22:21.372Z,7.50
2022-08-26T19:27:19.953Z,7.65
2022-08-26T19:32:24.362Z,7.60
2022-08-26T19:37:24.001Z,6.82
2022-08-26T19:42:34.628Z,8.02
2022-08-26T19:47:36.695Z,8.23
2022-08-26T20:04:25.148Z,6.65
2022-08-26T20:09:58.251Z,6.38
2022-08-26T20:15:09.471Z,5.35
2022-08-26T20:21:20.660Z,5.70
2022-08-26T20:27:21.028Z,5.43
2022-08-26T20:32:45.235Z,5.50
2022-08-26T20:37:58.562Z,5.43
2022-08-26T20:43:08.000Z,5.63
2022-08-26T20:50:22.062Z,4.82
2022-08-26T20:56:44.138Z,5.00
2022-08-26T21:02:11.013Z,6.25
2022-08-26T21:12:44.652Z,5.60
2022-08-26T21:17:51.259Z,5.95
2022-08-26T21:23:29.381Z,6.90
2022-08-26T21:35:47.415Z,6.25
2022-08-26T21:41:45.303Z,6.32
2022-08-26T21:47:22.624Z,6.28
2022-08-26T22:05:27.311Z,5.95
2022-08-26T22:11:10.055Z,6.40
2022-08-26T22:16:25.041Z,7.47
2022-08-26T22:21:35.796Z,6.13
2022-08-26T22:27:01.388Z,6.85
2022-08-26T22:32:03.061Z,6.82
2022-08-26T22:37:30.551Z,7.93
2022-08-26T22:43:00.081Z,7.72
2022-08-26T22:48:27.825Z,7.18
2022-08-26T22:54:07.555Z,6.90
2022-08-26T22:59:18.698Z,7.93
2022-08-26T23:04:52.541Z,7.00
2022-08-26T23:10:13.163Z,6.97
2022-08-26T23:21:23.426Z,6.68
2022-08-26T23:32:04.389Z,6.82
2022-08-26T23:43:52.341Z,9.45
2022-08-26T23:49:08.329Z,7.68
